Time;durP1;ratioP1;P1;durP2;ratioP2;P2;SDS_P1;SDS_P2;PMS_P1;PMS_P2;Temp;Humidity;BMP_temperature;BMP_pressure;BME280_temperature;BME280_humidity;BME280_pressure;Samples;Min_cycle;Max_cycle;Signal;HPM_P1;HPM_P2
2023/02/10 00:01:32;;;;;;;35.90;13.90;;;-0.70;99.90;;;;;;4972405;28;20200;-71
2023/02/10 00:03:59;;;;;;;29.20;13.17;;;-0.70;99.90;;;;;;4971642;28;20204;-71
2023/02/10 00:06:26;;;;;;;27.80;12.83;;;-0.70;99.90;;;;;;4972638;28;20283;-69
2023/02/10 00:08:56;;;;;;;27.60;12.57;;;-0.70;99.90;;;;;;4973381;28;20281;-74
2023/02/10 00:11:56;;;;;;;29.63;12.40;;;-0.70;99.90;;;;;;4972657;28;20258;-72
2023/02/10 00:14:12;;;;;;;28.90;12.77;;;-0.80;99.90;;;;;;5004643;28;20634;-70
2023/02/10 00:16:39;;;;;;;29.47;13.10;;;-0.80;99.90;;;;;;4991843;28;20304;-70
2023/02/10 00:19:06;;;;;;;25.43;12.60;;;-0.80;99.90;;;;;;4994849;28;20200;-78
2023/02/10 00:21:34;;;;;;;30.77;13.07;;;-0.80;99.90;;;;;;4991916;28;20224;-75
2023/02/10 00:24:01;;;;;;;27.70;12.53;;;-0.80;99.90;;;;;;4976245;28;20204;-77
2023/02/10 00:26:28;;;;;;;30.33;13.20;;;-0.80;99.90;;;;;;4954203;28;20559;-73
2023/02/10 00:28:55;;;;;;;27.00;12.37;;;-0.80;99.90;;;;;;4981674;28;20208;-74
2023/02/10 00:31:22;;;;;;;28.43;13.13;;;-0.90;99.90;;;;;;4986800;28;20210;-76
2023/02/10 00:33:49;;;;;;;28.80;12.77;;;-0.90;99.90;;;;;;4972246;28;20208;-77
2023/02/10 00:36:16;;;;;;;31.43;12.47;;;-0.90;99.90;;;;;;4973519;28;20665;-75
2023/02/10 00:38:43;;;;;;;29.87;12.40;;;-1.00;99.90;;;;;;4972168;28;20357;-77
2023/02/10 00:41:14;;;;;;;29.13;12.97;;;-0.90;99.90;;;;;;4988267;28;20579;-75
2023/02/10 00:43:42;;;;;;;28.73;12.40;;;-0.90;99.90;;;;;;4989890;28;20624;-75
2023/02/10 00:46:13;;;;;;;30.30;12.87;;;-0.90;99.90;;;;;;4993068;28;20200;-74
2023/02/10 00:48:42;;;;;;;25.77;12.27;;;-0.90;99.90;;;;;;4994167;28;20194;-77
2023/02/10 00:51:09;;;;;;;26.03;12.50;;;-0.90;99.90;;;;;;4977179;28;20613;-76
2023/02/10 00:53:36;;;;;;;28.70;13.00;;;-0.90;99.90;;;;;;4985749;28;20202;-74
2023/02/10 00:56:03;;;;;;;27.27;12.33;;;-0.90;99.90;;;;;;4964186;28;20203;-76
2023/02/10 00:58:30;;;;;;;30.57;12.70;;;-0.90;99.90;;;;;;4964440;28;20236;-76
2023/02/10 01:00:57;;;;;;;23.73;11.40;;;-0.90;99.90;;;;;;4955694;28;20728;-76
2023/02/10 01:03:24;;;;;;;30.57;12.87;;;-0.90;99.90;;;;;;4975965;28;20553;-77
2023/02/10 01:05:52;;;;;;;28.97;13.07;;;-0.90;99.90;;;;;;4963674;28;20213;-77
2023/02/10 01:08:19;;;;;;;29.30;12.20;;;-1.00;99.90;;;;;;4972455;28;20604;-75
2023/02/10 01:10:47;;;;;;;28.83;12.80;;;-1.00;99.90;;;;;;4955929;28;20258;-77
2023/02/10 01:13:15;;;;;;;27.77;12.30;;;-1.10;99.90;;;;;;4958327;28;20300;-76
2023/02/10 01:15:46;;;;;;;28.80;12.30;;;-1.10;99.90;;;;;;4984228;28;20657;-75
2023/02/10 01:18:14;;;;;;;24.70;11.70;;;-1.10;99.90;;;;;;4974828;28;20202;-73
2023/02/10 01:20:42;;;;;;;26.47;12.50;;;-1.20;99.90;;;;;;4975584;28;20291;-75
2023/02/10 01:23:10;;;;;;;29.67;12.47;;;-1.10;99.90;;;;;;4974970;28;20205;-75
2023/02/10 01:25:38;;;;;;;28.30;12.20;;;-1.10;99.90;;;;;;4975057;28;20192;-75
2023/02/10 01:28:06;;;;;;;26.90;11.77;;;-1.10;99.90;;;;;;4975099;28;20209;-74
2023/02/10 01:30:34;;;;;;;25.37;11.73;;;-1.20;99.90;;;;;;4975103;28;20210;-79
2023/02/10 01:33:00;;;;;;;26.23;12.00;;;-1.20;99.90;;;;;;4990907;28;20229;-74
2023/02/10 01:35:27;;;;;;;32.57;11.97;;;-1.20;99.90;;;;;;4992571;28;20196;-75
2023/02/10 01:37:55;;;;;;;28.30;11.77;;;-1.20;99.90;;;;;;4974639;28;20212;-78
2023/02/10 01:40:25;;;;;;;24.03;11.33;;;-1.20;99.90;;;;;;4974782;28;20679;-78
2023/02/10 01:42:52;;;;;;;25.97;11.97;;;-1.30;99.90;;;;;;4974276;28;20229;-76
2023/02/10 01:45:34;;;;;;;26.13;12.00;;;-1.30;99.90;;;;;;4969210;28;20301;-75
2023/02/10 01:48:03;;;;;;;29.17;11.90;;;-1.20;99.90;;;;;;4954203;28;20192;-78
2023/02/10 01:51:04;;;;;;;26.73;11.60;;;-1.30;99.90;;;;;;4956808;28;20208;-78
2023/02/10 01:53:31;;;;;;;25.90;11.20;;;-1.40;99.90;;;;;;4879662;29;20238;-80
2023/02/10 01:56:01;;;;;;;25.43;11.90;;;-1.30;99.90;;;;;;4894222;29;20606;-75
2023/02/10 01:58:32;;;;;;;27.67;12.23;;;-1.30;99.90;;;;;;4878614;29;20222;-75
2023/02/10 02:00:59;;;;;;;26.80;11.87;;;-1.30;99.90;;;;;;4894430;29;20208;-75
2023/02/10 02:03:26;;;;;;;27.30;12.33;;;-1.40;99.90;;;;;;4893964;29;20244;-75
2023/02/10 02:05:53;;;;;;;27.33;11.10;;;-1.40;99.90;;;;;;4878277;29;20208;-77
2023/02/10 02:08:27;;;;;;;29.17;11.83;;;-1.40;99.90;;;;;;4893542;29;20213;-79
2023/02/10 02:10:58;;;;;;;24.03;11.27;;;-1.40;99.90;;;;;;4893824;29;20203;-77
2023/02/10 02:13:43;;;;;;;19.77;10.63;;;-1.40;99.90;;;;;;4902781;29;20703;-77
2023/02/10 02:16:30;;;;;;;29.67;11.70;;;-1.40;99.90;;;;;;4906289;29;20272;-75
2023/02/10 02:19:33;;;;;;;27.53;11.70;;;-1.40;99.90;;;;;;4881832;29;20290;-76
2023/02/10 02:22:30;;;;;;;25.83;11.33;;;-1.40;99.90;;;;;;4879351;29;20201;-75
2023/02/10 02:25:24;;;;;;;25.13;11.30;;;-1.40;99.90;;;;;;4878428;29;20241;-73
2023/02/10 02:28:20;;;;;;;27.10;12.30;;;-1.40;99.90;;;;;;4890015;29;20212;-75
2023/02/10 02:31:09;;;;;;;26.40;11.67;;;-1.40;99.90;;;;;;4943683;28;20202;-74
2023/02/10 02:34:00;;;;;;;24.80;11.10;;;-1.40;99.90;;;;;;4973796;28;20260;-74
2023/02/10 02:36:48;;;;;;;23.23;11.70;;;-1.40;99.90;;;;;;4973773;28;20199;-79
2023/02/10 02:39:15;;;;;;;26.30;11.70;;;-1.40;99.90;;;;;;4962944;28;20204;-78
2023/02/10 02:41:44;;;;;;;27.10;11.80;;;-1.40;99.90;;;;;;4965526;28;20207;-79
2023/02/10 02:44:11;;;;;;;23.50;11.17;;;-1.30;99.90;;;;;;4990321;28;20201;-76
2023/02/10 02:47:12;;;;;;;25.97;11.70;;;-1.40;99.90;;;;;;4995115;28;20194;-79
2023/02/10 02:50:06;;;;;;;24.67;11.50;;;-1.40;99.90;;;;;;4910251;29;20557;-77
2023/02/10 02:52:50;;;;;;;26.40;11.63;;;-1.40;99.90;;;;;;4896063;29;20238;-78
2023/02/10 02:55:31;;;;;;;30.80;12.10;;;-1.50;99.90;;;;;;4895819;29;20711;-78
2023/02/10 02:58:08;;;;;;;25.03;11.27;;;-1.40;99.90;;;;;;4880175;29;20200;-79
2023/02/10 03:00:36;;;;;;;25.93;12.10;;;-1.50;99.90;;;;;;4894737;29;20202;-77
2023/02/10 03:03:03;;;;;;;27.53;11.47;;;-1.50;99.90;;;;;;4879438;29;20209;-77
2023/02/10 03:05:32;;;;;;;26.47;11.73;;;-1.50;99.90;;;;;;4879961;29;20453;-78
2023/02/10 03:07:59;;;;;;;25.10;11.37;;;-1.50;99.90;;;;;;4877561;29;20659;-78
2023/02/10 03:10:26;;;;;;;25.93;11.83;;;-1.50;99.90;;;;;;4892363;29;20213;-75
2023/02/10 03:12:53;;;;;;;26.40;11.97;;;-1.40;99.90;;;;;;4911067;29;20814;-79
2023/02/10 03:15:20;;;;;;;23.37;11.17;;;-1.40;99.90;;;;;;4877457;29;20202;-77
2023/02/10 03:17:46;;;;;;;24.13;11.17;;;-1.40;99.90;;;;;;4896664;29;20201;-79
2023/02/10 03:20:14;;;;;;;23.07;10.80;;;-1.40;99.90;;;;;;4896347;29;20588;-77
2023/02/10 03:22:41;;;;;;;28.33;11.73;;;-1.40;99.90;;;;;;4881223;29;20214;-77
2023/02/10 03:25:08;;;;;;;25.73;11.53;;;-1.40;99.90;;;;;;4880817;29;20665;-78
2023/02/10 03:27:35;;;;;;;25.67;11.97;;;-1.40;99.90;;;;;;4898766;29;20292;-78
2023/02/10 03:30:03;;;;;;;25.30;12.00;;;-1.30;99.90;;;;;;4917615;29;20229;-78
2023/02/10 03:32:30;;;;;;;27.93;11.93;;;-1.30;99.90;;;;;;4954335;29;20226;-79
2023/02/10 03:34:57;;;;;;;22.63;11.50;;;-1.30;99.90;;;;;;4972855;28;20629;-78
2023/02/10 03:37:24;;;;;;;25.67;11.83;;;-1.30;99.90;;;;;;4989749;28;20252;-78
2023/02/10 03:39:50;;;;;;;28.93;12.03;;;-1.30;99.90;;;;;;4974840;28;20201;-78
2023/02/10 03:42:17;;;;;;;28.30;11.40;;;-1.30;99.90;;;;;;4959757;28;20235;-77
2023/02/10 03:44:44;;;;;;;24.03;11.57;;;-1.30;99.90;;;;;;4973639;28;20378;-77
2023/02/10 03:47:11;;;;;;;26.00;11.60;;;-1.30;99.90;;;;;;4973510;28;20213;-78
2023/02/10 03:49:38;;;;;;;25.67;11.97;;;-1.30;99.90;;;;;;4973586;28;20627;-77
2023/02/10 03:52:05;;;;;;;27.53;11.77;;;-1.30;99.90;;;;;;4973269;28;20202;-77
2023/02/10 03:54:31;;;;;;;25.03;10.77;;;-1.30;99.90;;;;;;4973297;28;20214;-75
2023/02/10 03:56:58;;;;;;;30.23;11.83;;;-1.40;99.90;;;;;;4973327;28;20654;-76
2023/02/10 03:59:26;;;;;;;25.37;12.07;;;-1.40;99.90;;;;;;4973308;28;20206;-76
2023/02/10 04:01:52;;;;;;;25.37;11.53;;;-1.40;99.90;;;;;;4989419;28;20203;-75
2023/02/10 04:04:20;;;;;;;23.77;11.13;;;-1.40;99.90;;;;;;4973300;28;20194;-81
2023/02/10 04:06:46;;;;;;;25.97;11.33;;;-1.40;99.90;;;;;;4974232;28;20576;-76
2023/02/10 04:09:13;;;;;;;25.63;11.73;;;-1.40;99.90;;;;;;4989362;28;20249;-76
2023/02/10 04:11:40;;;;;;;24.00;11.63;;;-1.40;99.90;;;;;;4972897;28;20568;-76
2023/02/10 04:14:07;;;;;;;24.57;11.33;;;-1.50;99.90;;;;;;4972895;28;20759;-77
2023/02/10 04:16:34;;;;;;;25.17;12.00;;;-1.40;99.90;;;;;;4973084;28;20293;-76
2023/02/10 04:19:03;;;;;;;24.10;11.20;;;-1.40;99.90;;;;;;4974257;28;20206;-75
2023/02/10 04:21:29;;;;;;;24.43;11.30;;;-1.50;99.90;;;;;;4969753;28;20285;-75
2023/02/10 04:23:56;;;;;;;25.07;11.03;;;-1.50;99.90;;;;;;4953529;29;20202;-76
2023/02/10 04:26:23;;;;;;;27.20;11.87;;;-1.50;99.90;;;;;;4954011;29;20207;-78
2023/02/10 04:28:50;;;;;;;25.90;11.00;;;-1.50;99.90;;;;;;4953567;28;20207;-78
2023/02/10 04:31:18;;;;;;;25.77;11.53;;;-1.50;99.90;;;;;;4954867;29;20198;-78
2023/02/10 04:33:45;;;;;;;24.77;11.40;;;-1.50;99.90;;;;;;4954685;28;20223;-79
2023/02/10 04:36:12;;;;;;;26.63;11.43;;;-1.50;99.90;;;;;;4953428;29;20294;-77
2023/02/10 04:38:39;;;;;;;25.20;11.40;;;-1.50;99.90;;;;;;4982062;28;20198;-77
2023/02/10 04:41:05;;;;;;;25.33;11.00;;;-1.50;99.90;;;;;;4973872;28;20200;-78
2023/02/10 04:43:33;;;;;;;24.87;11.73;;;-1.50;99.90;;;;;;4969359;28;20242;-78
2023/02/10 04:46:04;;;;;;;26.63;11.67;;;-1.50;99.90;;;;;;4967601;28;20195;-76
2023/02/10 04:48:31;;;;;;;24.87;10.97;;;-1.50;99.90;;;;;;4974282;28;20563;-77
2023/02/10 04:50:58;;;;;;;28.27;11.77;;;-1.50;99.90;;;;;;4974562;28;20651;-76
2023/02/10 04:53:25;;;;;;;23.40;10.87;;;-1.50;99.90;;;;;;4972464;28;20708;-77
2023/02/10 04:55:52;;;;;;;26.40;11.60;;;-1.40;99.90;;;;;;4972945;28;20693;-78
2023/02/10 04:58:19;;;;;;;22.33;10.83;;;-1.40;99.90;;;;;;4989640;28;20224;-79
2023/02/10 05:00:46;;;;;;;27.73;11.37;;;-1.40;99.90;;;;;;4973004;28;20607;-78
2023/02/10 05:03:13;;;;;;;24.00;11.53;;;-1.40;99.90;;;;;;4972662;28;20289;-79
2023/02/10 05:05:40;;;;;;;26.07;11.57;;;-1.40;99.90;;;;;;4972041;28;20203;-77
2023/02/10 05:08:07;;;;;;;25.23;11.40;;;-1.40;99.90;;;;;;4973775;28;20221;-77
2023/02/10 05:10:34;;;;;;;31.13;12.03;;;-1.40;99.90;;;;;;4973149;28;20197;-77
2023/02/10 05:13:02;;;;;;;29.87;11.77;;;-1.40;99.90;;;;;;4992000;28;20231;-79
2023/02/10 05:15:30;;;;;;;29.70;11.90;;;-1.30;99.90;;;;;;4976296;28;20193;-79
2023/02/10 05:18:01;;;;;;;24.10;11.33;;;-1.30;99.90;;;;;;4972917;28;20211;-77
2023/02/10 05:20:31;;;;;;;27.00;12.03;;;-1.30;99.90;;;;;;4973666;28;20306;-77
2023/02/10 05:22:58;;;;;;;26.73;11.77;;;-1.20;99.90;;;;;;4973932;28;20194;-78
2023/02/10 05:25:24;;;;;;;27.50;12.27;;;-1.20;99.90;;;;;;4973916;28;20223;-76
2023/02/10 05:27:52;;;;;;;23.97;11.50;;;-1.10;99.90;;;;;;4988715;28;20205;-75
2023/02/10 05:30:19;;;;;;;28.00;12.13;;;-1.10;99.90;;;;;;4988485;28;20206;-76
2023/02/10 05:32:46;;;;;;;26.20;11.77;;;-1.10;99.90;;;;;;4973646;28;20210;-78
2023/02/10 05:35:13;;;;;;;25.23;11.80;;;-1.10;99.90;;;;;;4973184;28;20278;-74
2023/02/10 05:37:40;;;;;;;24.47;12.00;;;-1.10;99.90;;;;;;4991885;28;20200;-77
2023/02/10 05:40:07;;;;;;;25.43;11.63;;;-1.00;99.90;;;;;;4992526;28;20228;-76
2023/02/10 05:42:34;;;;;;;30.20;12.30;;;-1.00;99.90;;;;;;4992078;28;20337;-77
2023/02/10 05:45:05;;;;;;;25.03;12.07;;;-1.00;99.90;;;;;;4979030;28;20213;-78
2023/02/10 05:47:36;;;;;;;25.43;11.57;;;-1.00;99.90;;;;;;4975398;28;20174;-79
2023/02/10 05:50:03;;;;;;;28.03;11.63;;;-1.00;99.90;;;;;;4976479;28;20858;-79
2023/02/10 05:52:30;;;;;;;24.23;11.40;;;-1.00;99.90;;;;;;4993184;28;20193;-78
2023/02/10 05:54:57;;;;;;;28.03;12.20;;;-1.00;99.90;;;;;;4976158;28;20204;-76
2023/02/10 05:57:23;;;;;;;26.83;12.33;;;-0.90;99.90;;;;;;4991885;28;20192;-75
2023/02/10 05:59:50;;;;;;;24.40;11.50;;;-0.90;99.90;;;;;;4976534;28;20268;-76
2023/02/10 06:02:20;;;;;;;24.50;12.07;;;-0.90;99.90;;;;;;4976989;28;20204;-78
2023/02/10 06:04:47;;;;;;;26.50;12.20;;;-0.80;99.90;;;;;;4976388;28;20284;-76
2023/02/10 06:07:14;;;;;;;27.03;12.90;;;-0.80;99.90;;;;;;4976196;28;20757;-77
2023/02/10 06:09:41;;;;;;;28.07;12.17;;;-0.70;99.90;;;;;;4975379;28;20203;-77
2023/02/10 06:12:12;;;;;;;22.63;11.10;;;-0.70;99.90;;;;;;4975763;28;20209;-77
2023/02/10 06:14:40;;;;;;;34.30;12.70;;;-0.70;99.90;;;;;;4975294;28;20224;-79
2023/02/10 06:17:10;;;;;;;26.90;12.90;;;-0.60;99.90;;;;;;4976580;28;20249;-78
2023/02/10 06:19:38;;;;;;;29.93;12.70;;;-0.60;99.90;;;;;;4975389;28;20512;-77
2023/02/10 06:22:06;;;;;;;31.30;13.00;;;-0.50;99.90;;;;;;4979235;28;20754;-75
2023/02/10 06:24:33;;;;;;;26.07;12.57;;;-0.50;99.90;;;;;;4976413;28;20211;-73
2023/02/10 06:27:00;;;;;;;27.27;12.37;;;-0.50;99.90;;;;;;4990517;28;20671;-76
2023/02/10 06:29:27;;;;;;;25.90;12.60;;;-0.50;99.90;;;;;;4976330;28;20196;-76
2023/02/10 06:31:55;;;;;;;26.73;12.33;;;-0.40;99.90;;;;;;4973852;28;20197;-78
2023/02/10 06:34:22;;;;;;;30.57;13.07;;;-0.40;99.90;;;;;;4974294;28;20250;-77
2023/02/10 06:36:49;;;;;;;30.60;13.13;;;-0.50;99.90;;;;;;4955638;29;20336;-76
2023/02/10 06:39:16;;;;;;;33.13;13.53;;;-0.40;99.90;;;;;;4957660;28;20206;-78
2023/02/10 06:41:43;;;;;;;30.77;13.60;;;-0.40;99.90;;;;;;4956576;28;20243;-77
2023/02/10 06:44:10;;;;;;;30.33;12.87;;;-0.40;99.90;;;;;;4957449;28;20328;-82
2023/02/10 06:46:39;;;;;;;29.33;12.83;;;-0.30;99.90;;;;;;4975153;28;20202;-81
2023/02/10 06:49:06;;;;;;;30.03;13.70;;;-0.30;99.90;;;;;;4976011;28;20298;-78
2023/02/10 06:51:35;;;;;;;32.83;13.73;;;-0.30;99.90;;;;;;4975685;28;20585;-79
2023/02/10 06:54:02;;;;;;;30.90;12.97;;;-0.30;99.90;;;;;;4974482;28;20308;-80
2023/02/10 06:56:29;;;;;;;29.13;13.33;;;-0.30;99.90;;;;;;4960499;28;20286;-79
2023/02/10 06:58:56;;;;;;;32.57;13.97;;;-0.30;99.90;;;;;;4971185;28;20204;-79
2023/02/10 07:01:22;;;;;;;31.67;13.33;;;-0.30;99.90;;;;;;4988798;28;20209;-79
2023/02/10 07:03:49;;;;;;;28.83;13.50;;;-0.30;99.90;;;;;;4975738;28;20654;-77
2023/02/10 07:06:18;;;;;;;30.03;12.97;;;-0.20;99.90;;;;;;4957779;28;20315;-77
2023/02/10 07:08:45;;;;;;;29.30;13.67;;;-0.30;99.90;;;;;;4958495;28;20654;-77
2023/02/10 07:11:12;;;;;;;28.73;13.80;;;-0.30;99.90;;;;;;4957970;28;20676;-78
2023/02/10 07:13:39;;;;;;;32.87;13.37;;;-0.20;99.90;;;;;;4957801;28;20234;-78
2023/02/10 07:16:06;;;;;;;27.80;13.30;;;-0.20;99.90;;;;;;4975308;28;20206;-78
2023/02/10 07:18:33;;;;;;;29.80;12.93;;;-0.20;99.90;;;;;;4958047;28;20208;-78
2023/02/10 07:21:00;;;;;;;29.87;13.40;;;-0.20;99.90;;;;;;4957820;28;20206;-78
2023/02/10 07:23:27;;;;;;;30.93;14.20;;;-0.10;99.90;;;;;;4974096;28;20258;-77
2023/02/10 07:26:04;;;;;;;32.53;13.60;;;-0.20;99.90;;;;;;4973694;28;20650;-77
2023/02/10 07:28:32;;;;;;;30.33;13.53;;;-0.20;99.90;;;;;;4973931;28;20195;-79
2023/02/10 07:30:59;;;;;;;33.20;14.33;;;-0.30;99.90;;;;;;4975102;28;20205;-78
2023/02/10 07:33:28;;;;;;;30.90;13.97;;;-0.30;99.90;;;;;;4973786;28;20250;-76
2023/02/10 07:35:59;;;;;;;32.73;14.47;;;-0.30;99.90;;;;;;4975215;28;20624;-79
2023/02/10 07:38:26;;;;;;;34.37;14.87;;;-0.20;99.90;;;;;;4975038;28;20535;-76
2023/02/10 07:40:53;;;;;;;31.37;13.63;;;-0.30;99.90;;;;;;4973416;28;20218;-79
2023/02/10 07:43:20;;;;;;;33.00;14.53;;;-0.10;99.90;;;;;;4989810;28;20331;-76
2023/02/10 07:45:50;;;;;;;30.40;13.53;;;-0.10;99.90;;;;;;4956126;28;20255;-77
2023/02/10 07:48:18;;;;;;;30.77;13.93;;;0.00;99.90;;;;;;4956690;29;20600;-77
2023/02/10 07:50:46;;;;;;;31.80;14.87;;;0.00;99.90;;;;;;4955714;29;20203;-77
2023/02/10 07:53:13;;;;;;;29.77;13.97;;;0.00;99.90;;;;;;4954239;29;20307;-79
2023/02/10 07:55:40;;;;;;;29.40;14.33;;;0.10;99.90;;;;;;4954296;29;20201;-79
2023/02/10 07:58:07;;;;;;;34.57;15.00;;;0.10;99.90;;;;;;4953864;29;20214;-78
2023/02/10 08:00:35;;;;;;;33.63;14.57;;;0.30;99.90;;;;;;4954029;29;20239;-77
2023/02/10 08:03:05;;;;;;;32.43;14.33;;;0.30;99.90;;;;;;4938290;29;20198;-78
2023/02/10 08:05:35;;;;;;;31.30;15.17;;;0.30;99.90;;;;;;4938072;29;20600;-77
2023/02/10 08:08:03;;;;;;;33.13;14.20;;;0.40;99.90;;;;;;4937610;29;20703;-76
2023/02/10 08:10:41;;;;;;;33.70;15.37;;;0.60;99.90;;;;;;4969856;28;20206;-78
2023/02/10 08:13:08;;;;;;;31.73;14.77;;;0.70;99.90;;;;;;4954446;28;20193;-77
2023/02/10 08:15:35;;;;;;;32.20;14.50;;;0.80;99.90;;;;;;4967645;28;20200;-78
2023/02/10 08:18:02;;;;;;;31.30;14.17;;;0.80;99.90;;;;;;4972471;28;20689;-79
2023/02/10 08:20:29;;;;;;;34.97;15.10;;;0.90;99.90;;;;;;4954772;29;20671;-77
2023/02/10 08:23:00;;;;;;;37.80;15.10;;;0.80;99.90;;;;;;4953919;29;20300;-76
2023/02/10 08:25:28;;;;;;;37.30;15.13;;;0.80;99.90;;;;;;4953674;28;20535;-77
2023/02/10 08:27:54;;;;;;;32.93;14.93;;;0.90;99.90;;;;;;4957218;28;20210;-77
2023/02/10 08:30:22;;;;;;;37.23;15.77;;;1.00;99.90;;;;;;4961488;28;20229;-77
2023/02/10 08:32:55;;;;;;;34.37;14.60;;;1.20;99.90;;;;;;4976036;28;20231;-77
2023/02/10 08:35:22;;;;;;;30.73;14.80;;;1.20;99.90;;;;;;4972467;28;20720;-79
2023/02/10 08:37:49;;;;;;;32.80;14.80;;;1.30;99.90;;;;;;4972587;28;20700;-78
2023/02/10 08:40:17;;;;;;;35.03;14.77;;;1.30;99.90;;;;;;4973950;28;20238;-80
2023/02/10 08:42:45;;;;;;;36.67;15.33;;;1.40;99.90;;;;;;4965422;28;20233;-79
2023/02/10 08:45:12;;;;;;;33.77;15.30;;;1.40;99.90;;;;;;4953697;29;20209;-78
2023/02/10 08:47:39;;;;;;;36.13;14.70;;;1.30;99.90;;;;;;4968535;28;20198;-78
2023/02/10 08:50:06;;;;;;;32.93;14.47;;;1.30;99.90;;;;;;4973458;28;20221;-79
2023/02/10 08:52:34;;;;;;;33.83;14.97;;;1.30;99.90;;;;;;4973582;28;20193;-77
2023/02/10 08:55:01;;;;;;;32.73;15.53;;;1.30;99.90;;;;;;4973229;28;20233;-79
2023/02/10 08:57:28;;;;;;;34.40;15.63;;;1.20;99.90;;;;;;4972692;28;20205;-77
2023/02/10 08:59:55;;;;;;;32.70;14.87;;;1.40;99.90;;;;;;4974312;28;20193;-78
2023/02/10 09:02:22;;;;;;;27.83;14.43;;;1.20;99.90;;;;;;4972302;28;20200;-77
2023/02/10 09:04:49;;;;;;;31.93;14.83;;;1.20;99.90;;;;;;4972087;28;20643;-77
2023/02/10 09:07:33;;;;;;;35.57;15.57;;;1.10;99.90;;;;;;4972259;28;20224;-77
2023/02/10 09:10:00;;;;;;;35.67;14.73;;;1.20;99.90;;;;;;4989416;28;20665;-77
2023/02/10 09:12:27;;;;;;;32.57;15.17;;;1.20;99.90;;;;;;4959443;28;20678;-76
2023/02/10 09:14:54;;;;;;;31.13;15.07;;;1.20;99.90;;;;;;4970601;28;20773;-78
2023/02/10 09:17:21;;;;;;;33.67;14.87;;;1.40;99.90;;;;;;4954293;29;20206;-78
2023/02/10 09:19:48;;;;;;;32.73;14.67;;;1.50;99.90;;;;;;4937382;29;20190;-77
2023/02/10 09:22:16;;;;;;;33.83;14.27;;;1.50;99.90;;;;;;4952729;29;20201;-77
2023/02/10 09:24:46;;;;;;;34.03;15.40;;;1.50;99.90;;;;;;4960126;28;20668;-78
2023/02/10 09:27:15;;;;;;;34.03;15.13;;;1.50;99.90;;;;;;4976395;28;20201;-79
2023/02/10 09:29:42;;;;;;;30.60;14.70;;;1.50;99.90;;;;;;4959963;28;20603;-78
2023/02/10 09:32:09;;;;;;;33.57;15.60;;;1.60;99.90;;;;;;4959951;28;20292;-78
2023/02/10 09:34:36;;;;;;;31.37;15.10;;;1.60;99.90;;;;;;4960017;28;20233;-77
2023/02/10 09:37:04;;;;;;;33.93;15.67;;;1.60;99.90;;;;;;4977186;28;20534;-78
2023/02/10 09:39:31;;;;;;;36.67;15.93;;;1.60;99.90;;;;;;4968038;28;20205;-80
2023/02/10 09:42:29;;;;;;;36.60;15.07;;;1.60;99.90;;;;;;4960393;28;21041;-78
2023/02/10 09:45:02;;;;;;;34.70;14.87;;;1.60;99.90;;;;;;4959831;28;20198;-79
2023/02/10 09:47:48;;;;;;;31.93;14.33;;;1.60;99.90;;;;;;4959626;28;20219;-80
2023/02/10 09:50:45;;;;;;;35.90;15.13;;;1.50;99.90;;;;;;4959780;28;20209;-79
2023/02/10 09:53:21;;;;;;;35.33;15.00;;;1.60;99.90;;;;;;4977109;28;20229;-79
2023/02/10 09:56:10;;;;;;;33.27;15.30;;;1.40;99.90;;;;;;4993340;28;20704;-79
2023/02/10 09:58:52;;;;;;;35.67;14.87;;;1.50;99.90;;;;;;4979034;28;20198;-80
2023/02/10 10:02:03;;;;;;;36.50;15.97;;;1.60;99.90;;;;;;4960124;28;20213;-79
2023/02/10 10:04:31;;;;;;;33.87;15.23;;;1.40;99.90;;;;;;4991281;28;20203;-79
2023/02/10 10:07:23;;;;;;;39.23;15.83;;;1.60;99.90;;;;;;4975466;28;20231;-78
2023/02/10 10:10:24;;;;;;;30.80;14.17;;;1.60;99.90;;;;;;4975353;28;20201;-81
2023/02/10 10:12:53;;;;;;;35.67;15.03;;;1.60;99.90;;;;;;4976004;23;20225;-81
2023/02/10 10:15:52;;;;;;;37.47;14.50;;;1.50;99.90;;;;;;4945026;28;20682;-81
2023/02/10 10:18:52;;;;;;;32.43;14.77;;;1.50;99.90;;;;;;4992116;28;20211;-77
2023/02/10 10:22:07;;;;;;;33.77;14.97;;;1.40;99.90;;;;;;4980687;23;20232;-76
2023/02/10 10:24:46;;;;;;;34.33;14.03;;;1.40;99.90;;;;;;4935425;29;20307;-74
2023/02/10 10:27:22;;;;;;;35.00;14.60;;;1.50;99.90;;;;;;4935445;29;20201;-77
2023/02/10 10:29:54;;;;;;;33.27;15.20;;;1.50;99.90;;;;;;4935556;29;20190;-76
2023/02/10 10:32:31;;;;;;;31.50;14.70;;;1.50;99.90;;;;;;4935433;29;20206;-80
2023/02/10 10:35:00;;;;;;;35.70;15.27;;;1.50;99.90;;;;;;4935138;29;20225;-76
2023/02/10 10:37:28;;;;;;;35.83;15.10;;;1.60;99.90;;;;;;4934644;29;20210;-79
2023/02/10 10:40:00;;;;;;;32.70;14.53;;;1.60;99.90;;;;;;4935152;29;20207;-81
2023/02/10 10:42:46;;;;;;;32.10;14.83;;;1.70;99.90;;;;;;4935271;29;20640;-79
2023/02/10 10:45:25;;;;;;;35.67;15.60;;;1.70;99.90;;;;;;4919261;29;20191;-77
2023/02/10 10:47:58;;;;;;;36.30;15.00;;;1.70;99.90;;;;;;4919618;29;20304;-76
2023/02/10 10:50:25;;;;;;;33.93;14.67;;;1.70;99.90;;;;;;4918972;29;20203;-77
2023/02/10 10:52:54;;;;;;;30.07;14.27;;;1.70;99.90;;;;;;4919175;29;20212;-78
2023/02/10 10:55:36;;;;;;;36.07;15.50;;;1.70;99.90;;;;;;4934906;29;20223;-80
2023/02/10 10:58:24;;;;;;;32.70;14.73;;;1.70;99.90;;;;;;4918936;29;20217;-78
2023/02/10 11:00:57;;;;;;;36.97;15.03;;;1.70;99.90;;;;;;4977967;28;20258;-82
2023/02/10 11:03:25;;;;;;;34.10;15.37;;;1.70;99.90;;;;;;4997147;28;20294;-77
2023/02/10 11:06:14;;;;;;;30.07;15.23;;;1.50;99.90;;;;;;5015014;28;20210;-77
2023/02/10 11:08:58;;;;;;;33.93;15.43;;;1.60;99.90;;;;;;4977695;28;20551;-78
2023/02/10 11:11:38;;;;;;;30.80;15.53;;;1.50;99.90;;;;;;4978470;28;20601;-79
2023/02/10 11:14:37;;;;;;;38.17;15.73;;;1.50;99.90;;;;;;4977171;28;20621;-80
2023/02/10 11:17:07;;;;;;;37.80;16.00;;;1.70;99.90;;;;;;4995217;28;20566;-82
2023/02/10 11:20:01;;;;;;;39.43;15.60;;;1.70;99.90;;;;;;4976940;28;20335;-80
2023/02/10 11:22:31;;;;;;;37.47;15.97;;;1.70;99.90;;;;;;4959002;28;20198;-74
2023/02/10 11:25:01;;;;;;;37.20;15.77;;;1.60;99.90;;;;;;4977355;28;20577;-81
2023/02/10 11:27:28;;;;;;;35.57;15.53;;;1.70;99.90;;;;;;4977928;28;20609;-81
2023/02/10 11:29:57;;;;;;;34.30;16.13;;;1.70;99.90;;;;;;4994310;28;20550;-74
2023/02/10 11:32:34;;;;;;;36.57;15.83;;;1.60;99.90;;;;;;4976976;28;20204;-79
2023/02/10 11:35:06;;;;;;;36.27;16.53;;;1.60;99.90;;;;;;4976291;28;20252;-77
2023/02/10 11:37:38;;;;;;;35.67;16.30;;;1.70;99.90;;;;;;4993761;28;20200;-78
2023/02/10 11:40:20;;;;;;;37.50;16.43;;;1.80;99.90;;;;;;4965484;28;20292;-79
2023/02/10 11:42:53;;;;;;;35.40;15.23;;;1.90;99.90;;;;;;4976701;28;20201;-80
2023/02/10 11:45:24;;;;;;;45.50;17.43;;;2.00;99.90;;;;;;4976656;28;20208;-81
2023/02/10 11:48:18;;;;;;;37.03;15.77;;;1.90;99.90;;;;;;4976189;28;20209;-81
2023/02/10 11:50:45;;;;;;;34.43;15.07;;;2.00;99.90;;;;;;4976715;28;20658;-81
2023/02/10 11:53:27;;;;;;;36.27;16.40;;;1.90;99.90;;;;;;4976774;28;20295;-80
2023/02/10 11:56:09;;;;;;;39.83;16.83;;;1.90;99.90;;;;;;4976779;28;20315;-75
2023/02/10 11:59:04;;;;;;;40.10;16.47;;;1.90;99.90;;;;;;4994180;28;20283;-77
2023/02/10 12:01:47;;;;;;;39.37;15.97;;;2.10;99.90;;;;;;4976414;28;20190;-77
2023/02/10 12:04:53;;;;;;;36.77;16.17;;;2.00;99.90;;;;;;4994423;28;20215;-77
2023/02/10 12:07:40;;;;;;;39.77;15.73;;;2.00;99.90;;;;;;4976001;28;20630;-77
2023/02/10 12:10:32;;;;;;;39.73;16.57;;;2.20;99.90;;;;;;4994070;28;20235;-78
2023/02/10 12:13:11;;;;;;;38.00;16.47;;;2.20;99.90;;;;;;4976759;28;20197;-78
2023/02/10 12:15:56;;;;;;;37.20;16.57;;;2.20;99.90;;;;;;4989348;28;20250;-80
2023/02/10 12:18:42;;;;;;;39.77;16.30;;;2.10;99.90;;;;;;4976126;28;20208;-76
2023/02/10 12:21:35;;;;;;;36.17;16.60;;;2.20;99.90;;;;;;4976051;28;20594;-78
2023/02/10 12:24:39;;;;;;;34.37;15.93;;;2.00;99.90;;;;;;4976325;28;20662;-76
2023/02/10 12:27:30;;;;;;;36.30;16.80;;;2.00;99.90;;;;;;4990692;28;20192;-80
2023/02/10 12:30:08;;;;;;;35.73;16.47;;;2.00;99.90;;;;;;4993260;28;20207;-76
2023/02/10 12:32:44;;;;;;;40.93;17.23;;;2.00;99.90;;;;;;4974387;28;20307;-73
2023/02/10 12:35:58;;;;;;;42.13;17.47;;;2.00;99.90;;;;;;4964527;28;20217;-74
2023/02/10 12:38:34;;;;;;;39.80;17.10;;;1.90;99.90;;;;;;4934312;29;20214;-81
2023/02/10 12:41:11;;;;;;;38.60;17.47;;;1.90;99.90;;;;;;4945113;28;20220;-77
2023/02/10 12:43:43;;;;;;;39.57;17.83;;;2.00;99.90;;;;;;4946195;28;20750;-79
2023/02/10 12:46:29;;;;;;;38.87;17.27;;;2.00;99.90;;;;;;4957483;28;20202;-77
2023/02/10 12:49:05;;;;;;;37.93;17.20;;;1.90;99.90;;;;;;4967481;28;20260;-86
2023/02/10 12:51:40;;;;;;;39.60;17.27;;;2.00;99.90;;;;;;4948556;28;20202;-80
2023/02/10 12:54:16;;;;;;;38.60;17.03;;;2.00;99.90;;;;;;4942683;28;20205;-75
2023/02/10 12:56:49;;;;;;;40.03;17.37;;;2.00;99.90;;;;;;4949577;28;20213;-72